Time;durP1;ratioP1;P1;durP2;ratioP2;P2;SDS_P1;SDS_P2;PMS_P1;PMS_P2;Temp;Humidity;BMP_temperature;BMP_pressure;BME280_temperature;BME280_humidity;BME280_pressure;Samples;Min_cycle;Max_cycle;Signal;HPM_P1;HPM_P2
2023/09/21 00:00:45;;;;;;;10.63;8.88;;;;;;;15.44;100.00;95284.50;5120265;27;20011;-86
2023/09/21 00:03:11;;;;;;;;;;;;;;;15.42;100.00;95281.25;5123178;27;20654;-86
2023/09/21 00:05:37;;;;;;;10.10;9.10;;;;;;;15.40;100.00;95268.41;5120630;27;19915;-85
2023/09/21 00:08:04;;;;;;;12.20;9.10;;;;;;;15.44;100.00;95274.06;5121832;27;20023;-85
2023/09/21 00:10:32;;;;;;;9.90;9.13;;;;;;;15.43;100.00;95283.69;5121721;27;20039;-84
2023/09/21 00:13:00;;;;;;;12.60;9.70;;;;;;;15.51;100.00;95280.16;5120719;27;20717;-86
2023/09/21 00:15:27;;;;;;;12.40;8.93;;;;;;;15.64;100.00;95282.81;5121925;27;20107;-84
2023/09/21 00:17:53;;;;;;;13.32;10.10;;;;;;;15.62;100.00;95280.41;5120467;27;20034;-85
2023/09/21 00:23:16;;;;;;;10.02;9.05;;;;;;;15.70;100.00;95280.22;5052803;28;20504;-89
2023/09/21 00:25:42;;;;;;;11.02;9.98;;;;;;;15.69;100.00;95280.44;5091998;28;20040;-87
2023/09/21 00:28:08;;;;;;;11.98;10.35;;;;;;;15.70;100.00;95282.84;5121253;28;20034;-87
2023/09/21 00:30:35;;;;;;;10.48;9.38;;;;;;;15.85;100.00;95280.13;5120180;28;20035;-87
2023/09/21 00:33:01;;;;;;;12.05;9.85;;;;;;;15.92;100.00;95269.69;5103798;28;20035;-86
2023/09/21 00:35:29;;;;;;;11.00;9.90;;;;;;;15.96;100.00;95274.31;5120262;28;20031;-86
2023/09/21 00:37:55;;;;;;;12.13;10.05;;;;;;;15.83;100.00;95277.69;5121443;28;20119;-86
2023/09/21 00:40:22;;;;;;;14.80;10.98;;;;;;;15.65;100.00;95289.66;5120648;28;20042;-87
2023/09/21 00:42:48;;;;;;;14.52;12.02;;;;;;;15.50;100.00;95312.47;5120721;28;20110;-84
2023/09/21 00:45:14;;;;;;;11.98;10.63;;;;;;;15.67;100.00;95322.41;5121979;28;20660;-84
2023/09/21 00:47:51;;;;;;;13.18;9.77;;;;;;;15.72;100.00;95321.84;5119722;28;20055;-85
2023/09/21 00:50:21;;;;;;;12.15;10.07;;;;;;;15.64;100.00;95325.41;5122092;28;20027;-86
2023/09/21 00:52:46;;;;;;;11.73;9.43;;;;;;;15.78;100.00;95328.91;5119899;28;20515;-84
2023/09/21 00:55:16;;;;;;;10.90;9.60;;;;;;;15.68;100.00;95333.66;5121862;28;20039;-82
2023/09/21 00:57:42;;;;;;;11.68;10.48;;;;;;;15.76;100.00;95328.28;5121139;27;20461;-82
2023/09/21 01:00:15;;;;;;;12.98;10.40;;;;;;;15.84;100.00;95333.34;5106670;27;20496;-82
2023/09/21 01:02:42;;;;;;;11.82;9.75;;;;;;;15.95;100.00;95337.22;5125583;27;20023;-82
2023/09/21 01:05:08;;;;;;;10.80;9.68;;;;;;;15.92;100.00;95338.44;5109664;27;20043;-84
2023/09/21 01:07:36;;;;;;;13.60;10.32;;;;;;;15.93;100.00;95342.63;5125811;27;20519;-85
2023/09/21 01:10:06;;;;;;;12.13;10.75;;;;;;;16.02;100.00;95335.47;5123604;27;20023;-84
2023/09/21 01:12:37;;;;;;;13.35;10.50;;;;;;;16.09;100.00;95317.97;5125728;27;20458;-81
2023/09/21 01:15:11;;;;;;;12.10;10.48;;;;;;;16.18;100.00;95303.75;5124236;27;20475;-80
2023/09/21 01:17:41;;;;;;;12.88;10.63;;;;;;;16.18;100.00;95304.53;5103902;27;20028;-82
2023/09/21 01:22:45;;;;;;;17.48;10.50;;;;;;;16.18;100.00;95330.66;5123614;27;20034;-85
2023/09/21 01:25:11;;;;;;;10.88;9.77;;;;;;;16.23;100.00;95330.91;5099899;27;20024;-81
2023/09/21 01:27:39;;;;;;;20.65;10.40;;;;;;;16.19;100.00;95319.22;5102301;27;20015;-82
2023/09/21 01:30:08;;;;;;;15.43;9.80;;;;;;;16.20;100.00;95306.97;5113313;27;20044;-82
2023/09/21 01:32:34;;;;;;;10.73;9.70;;;;;;;16.26;100.00;95293.91;5121647;27;20261;-81
2023/09/21 01:35:00;;;;;;;9.82;8.93;;;;;;;16.34;100.00;95285.88;5123573;27;20609;-85
2023/09/21 01:37:27;;;;;;;18.27;10.63;;;;;;;16.41;100.00;95279.88;5125064;27;20096;-81
2023/09/21 01:39:52;;;;;;;15.82;10.82;;;;;;;16.47;100.00;95277.25;5123098;27;20110;-84
2023/09/21 01:42:17;;;;;;;19.00;11.30;;;;;;;16.48;100.00;95281.50;5125145;27;20103;-79
2023/09/21 01:44:43;;;;;;;20.92;11.15;;;;;;;16.54;100.00;95277.28;5122908;27;20063;-81
2023/09/21 01:47:09;;;;;;;23.48;12.43;;;;;;;16.53;100.00;95279.09;5124679;27;20023;-83
2023/09/21 01:49:34;;;;;;;14.73;11.02;;;;;;;16.16;100.00;95295.28;5123866;27;20634;-83
2023/09/21 01:51:59;;;;;;;14.02;11.80;;;;;;;16.07;100.00;95312.97;5123500;27;20452;-82
2023/09/21 01:54:27;;;;;;;17.42;11.27;;;;;;;16.07;100.00;95315.56;5124915;27;20034;-81
2023/09/21 01:56:53;;;;;;;14.20;10.73;;;;;;;16.29;100.00;95305.78;5122767;27;20361;-82
2023/09/21 01:59:18;;;;;;;13.80;10.80;;;;;;;16.21;100.00;95296.31;5110605;27;20023;-83
2023/09/21 02:01:47;;;;;;;18.30;12.32;;;;;;;15.93;100.00;95287.78;5122273;27;20022;-81
2023/09/21 02:04:12;;;;;;;14.80;12.10;;;;;;;15.55;100.00;95310.09;5124260;27;20051;-82
2023/09/21 02:06:39;;;;;;;13.18;11.77;;;;;;;15.71;100.00;95333.28;5123102;27;20367;-81
2023/09/21 02:09:05;;;;;;;17.13;11.50;;;;;;;15.83;100.00;95332.53;5123207;27;20019;-83
2023/09/21 02:11:30;;;;;;;13.48;11.00;;;;;;;15.88;100.00;95321.53;5123802;27;20088;-82
2023/09/21 02:13:56;;;;;;;17.42;12.35;;;;;;;15.94;100.00;95318.13;5122891;27;20081;-84
2023/09/21 02:16:23;;;;;;;15.68;11.98;;;;;;;15.96;100.00;95318.72;5124281;27;20264;-83
2023/09/21 02:18:48;;;;;;;16.83;13.43;;;;;;;15.68;100.00;95331.06;5122310;27;20088;-84
2023/09/21 02:21:19;;;;;;;17.45;10.70;;;;;;;15.54;100.00;95350.25;5123929;27;20027;-84
2023/09/21 02:23:45;;;;;;;17.38;12.45;;;;;;;15.54;100.00;95364.09;5117213;27;20168;-81
2023/09/21 02:26:11;;;;;;;12.52;10.88;;;;;;;15.62;100.00;95360.53;5096299;27;20062;-81
2023/09/21 02:28:36;;;;;;;13.35;12.02;;;;;;;15.70;100.00;95361.19;5123448;27;20365;-81
2023/09/21 02:31:02;;;;;;;13.32;11.40;;;;;;;15.82;100.00;95346.63;5122434;27;20030;-80
2023/09/21 02:33:29;;;;;;;12.35;11.25;;;;;;;15.94;100.00;95343.44;5113253;27;20024;-80
2023/09/21 02:35:55;;;;;;;13.82;10.80;;;;;;;16.03;100.00;95327.41;5118832;27;20465;-82
2023/09/21 02:38:20;;;;;;;11.07;10.02;;;;;;;16.03;100.00;95309.13;5123985;27;20123;-81
2023/09/21 02:40:45;;;;;;;12.20;10.65;;;;;;;16.12;100.00;95296.69;5122098;27;20031;-83
2023/09/21 02:43:11;;;;;;;12.75;10.38;;;;;;;16.16;100.00;95272.56;5123151;27;20412;-83
2023/09/21 02:45:37;;;;;;;12.02;10.93;;;;;;;16.16;100.00;95269.16;5122332;27;20111;-82
2023/09/21 02:48:03;;;;;;;15.70;11.45;;;;;;;16.16;100.00;95282.22;5122648;27;20034;-82
2023/09/21 02:50:30;;;;;;;13.57;10.50;;;;;;;16.13;100.00;95275.59;5123056;27;20544;-82
2023/09/21 02:53:04;;;;;;;13.27;10.48;;;;;;;16.19;100.00;95279.22;5121700;27;20159;-83
2023/09/21 02:55:30;;;;;;;13.48;10.20;;;;;;;16.13;100.00;95262.50;5123188;27;20035;-80
2023/09/21 02:57:56;;;;;;;13.38;9.95;;;;;;;16.12;100.00;95255.66;5121702;27;20076;-83
2023/09/21 03:00:26;;;;;;;12.32;11.05;;;;;;;16.11;100.00;95258.50;5123138;27;20079;-82
2023/09/21 03:02:54;;;;;;;16.85;9.73;;;;;;;16.06;100.00;95248.63;5121645;27;20042;-82
2023/09/21 03:05:19;;;;;;;12.10;10.60;;;;;;;16.11;100.00;95259.31;5122774;27;20045;-84
2023/09/21 03:07:45;;;;;;;11.65;10.45;;;;;;;16.14;100.00;95269.38;5123135;27;20487;-84
2023/09/21 03:10:11;;;;;;;12.52;10.27;;;;;;;16.12;100.00;95275.78;5116690;27;20094;-84
2023/09/21 03:12:38;;;;;;;14.20;10.23;;;;;;;16.14;100.00;95282.44;5113651;27;20539;-82
2023/09/21 03:15:07;;;;;;;11.60;9.98;;;;;;;16.17;100.00;95286.47;5106540;27;20848;-84
2023/09/21 03:17:35;;;;;;;10.90;9.82;;;;;;;16.17;100.00;95302.94;5122862;27;20062;-86
2023/09/21 03:20:23;;;;;;;13.47;10.40;;;;;;;16.18;100.00;95291.47;5121061;27;20019;-84
2023/09/21 03:22:47;;;;;;;11.63;9.30;;;;;;;16.10;100.00;95290.84;5121705;27;20704;-82
2023/09/21 03:25:16;;;;;;;15.38;11.20;;;;;;;16.11;100.00;95285.44;5096847;27;20032;-83
2023/09/21 03:27:45;;;;;;;11.23;9.60;;;;;;;16.14;100.00;95279.81;5104726;27;20031;-83
2023/09/21 03:30:11;;;;;;;12.27;9.50;;;;;;;16.16;100.00;95272.56;5110704;27;20118;-84
2023/09/21 03:32:40;;;;;;;15.50;9.63;;;;;;;16.23;100.00;95269.97;5118467;27;20647;-83
2023/09/21 03:35:06;;;;;;;11.68;10.18;;;;;;;16.22;100.00;95261.34;5122800;27;20917;-82
2023/09/21 03:37:32;;;;;;;11.10;10.20;;;;;;;16.20;100.00;95267.75;5120789;27;20117;-84
2023/09/21 03:39:57;;;;;;;12.73;9.55;;;;;;;16.24;100.00;95269.00;5122461;27;20114;-83
2023/09/21 03:42:23;;;;;;;16.35;9.82;;;;;;;16.13;100.00;95272.97;5122060;27;20535;-82
2023/09/21 03:44:48;;;;;;;14.20;10.40;;;;;;;16.16;100.00;95269.16;5121119;27;20037;-84
2023/09/21 03:47:17;;;;;;;13.18;10.52;;;;;;;16.20;100.00;95252.91;5122374;27;20418;-83
2023/09/21 03:49:44;;;;;;;11.32;9.02;;;;;;;16.20;100.00;95250.28;5120889;27;20373;-82
2023/09/21 03:52:15;;;;;;;17.02;10.80;;;;;;;16.16;100.00;95259.50;5122021;27;20023;-83
2023/09/21 03:54:46;;;;;;;11.32;10.20;;;;;;;16.10;100.00;95265.53;5120818;27;20018;-84
2023/09/21 03:57:14;;;;;;;11.35;10.10;;;;;;;16.19;100.00;95266.16;5122027;27;20512;-82
2023/09/21 03:59:40;;;;;;;11.32;10.40;;;;;;;16.09;100.00;95271.75;5122253;27;20029;-82
2023/09/21 04:02:07;;;;;;;12.32;10.23;;;;;;;16.09;100.00;95266.53;5120602;27;20122;-83
2023/09/21 04:04:33;;;;;;;14.07;10.95;;;;;;;16.14;100.00;95263.31;5121881;27;20110;-84
2023/09/21 04:06:58;;;;;;;12.50;10.90;;;;;;;16.12;100.00;95270.53;5120319;27;20102;-83
2023/09/21 04:09:24;;;;;;;11.68;10.57;;;;;;;16.13;100.00;95262.50;5121959;27;20043;-84
2023/09/21 04:11:49;;;;;;;17.48;10.00;;;;;;;16.12;100.00;95257.47;5120086;27;20098;-81
2023/09/21 04:14:15;;;;;;;10.65;9.13;;;;;;;16.14;100.00;95227.56;5122376;27;20023;-84
2023/09/21 04:16:40;;;;;;;8.00;7.20;;;;;;;16.55;100.00;95174.31;5120673;27;20046;-82
2023/09/21 04:19:07;;;;;;;9.82;8.20;;;;;;;16.52;100.00;95114.53;5121037;27;20046;-82
2023/09/21 04:21:32;;;;;;;11.07;8.25;;;;;;;16.44;100.00;95106.94;5121707;28;20023;-82
2023/09/21 04:23:57;;;;;;;10.07;9.18;;;;;;;16.40;100.00;95127.44;5115712;28;20027;-83
2023/09/21 04:26:23;;;;;;;10.25;9.25;;;;;;;16.26;100.00;95162.41;5092127;28;20079;-82
2023/09/21 04:28:49;;;;;;;9.80;7.60;;;;;;;16.40;100.00;95152.78;5119269;28;20088;-84
2023/09/21 04:31:15;;;;;;;14.90;9.70;;;;;;;16.35;100.00;95163.81;5112754;28;20023;-82
2023/09/21 04:33:41;;;;;;;9.07;8.27;;;;;;;16.28;100.00;95169.03;5123893;27;20023;-82
2023/09/21 04:36:07;;;;;;;13.10;7.93;;;;;;;16.32;100.00;95182.53;5113818;27;20036;-80
2023/09/21 04:38:33;;;;;;;15.88;9.63;;;;;;;16.29;100.00;95178.50;5110878;27;20450;-83
2023/09/21 04:40:59;;;;;;;10.30;7.38;;;;;;;16.54;100.00;95156.97;5114309;27;20031;-85
2023/09/21 04:43:28;;;;;;;8.73;6.68;;;;;;;17.05;100.00;95079.41;5125329;27;20031;-85
2023/09/21 04:45:54;;;;;;;7.80;7.13;;;;;;;17.23;100.00;95039.50;5124347;27;20114;-82
2023/09/21 04:48:20;;;;;;;7.72;6.93;;;;;;;17.12;100.00;95055.84;5125650;27;20102;-83
2023/09/21 04:50:51;;;;;;;9.32;7.90;;;;;;;17.07;100.00;95087.88;5105309;27;20019;-84
2023/09/21 04:53:16;;;;;;;9.85;7.63;;;;;;;17.05;100.00;95112.66;5125566;27;20476;-84
2023/09/21 04:55:42;;;;;;;8.88;7.90;;;;;;;17.11;100.00;95125.72;5120226;27;20031;-84
2023/09/21 04:58:08;;;;;;;12.65;7.85;;;;;;;17.08;100.00;95151.50;5122610;27;20441;-83
2023/09/21 05:00:33;;;;;;;8.27;7.43;;;;;;;17.07;100.00;95165.59;5109906;27;20457;-82
2023/09/21 05:02:59;;;;;;;9.10;7.72;;;;;;;17.08;100.00;95160.16;5123704;27;20060;-83
2023/09/21 05:05:26;;;;;;;11.55;8.55;;;;;;;17.10;100.00;95162.56;5112879;27;20137;-83
2023/09/21 05:07:53;;;;;;;9.07;8.20;;;;;;;17.15;100.00;95140.00;5122112;27;20503;-81
2023/09/21 05:10:18;;;;;;;11.93;8.95;;;;;;;17.14;100.00;95159.34;5125481;27;20054;-82
2023/09/21 05:12:46;;;;;;;10.70;8.43;;;;;;;17.16;100.00;95162.56;5123835;27;20475;-81
2023/09/21 05:15:14;;;;;;;12.98;9.60;;;;;;;17.06;100.00;95154.31;5123205;27;20038;-82
2023/09/21 05:17:40;;;;;;;11.83;9.77;;;;;;;17.07;100.00;95161.16;5119892;27;20480;-83
2023/09/21 05:20:06;;;;;;;13.43;9.88;;;;;;;17.07;100.00;95170.84;5123560;27;20038;-83
2023/09/21 05:22:32;;;;;;;12.30;8.88;;;;;;;17.05;100.00;95184.09;5125684;27;20114;-83
2023/09/21 05:25:00;;;;;;;8.95;8.15;;;;;;;17.28;100.00;95103.28;5101891;27;20476;-83
2023/09/21 05:27:29;;;;;;;10.70;7.13;;;;;;;17.35;100.00;95105.88;5118546;27;20054;-82
2023/09/21 05:29:55;;;;;;;9.07;8.18;;;;;;;17.46;100.00;95099.19;5123857;27;20023;-81
2023/09/21 05:32:21;;;;;;;7.57;6.88;;;;;;;17.61;100.00;95044.75;5124380;27;20031;-83
2023/09/21 05:34:47;;;;;;;8.77;7.05;;;;;;;17.86;100.00;95014.13;5124694;27;20019;-83
2023/09/21 05:37:14;;;;;;;8.75;6.28;;;;;;;17.93;100.00;95007.00;5123684;27;20086;-82
2023/09/21 05:39:40;;;;;;;7.82;6.57;;;;;;;18.12;100.00;94984.25;5124775;27;20023;-82
2023/09/21 05:42:05;;;;;;;9.10;6.30;;;;;;;18.16;100.00;94985.44;5104348;27;20027;-81
2023/09/21 05:44:31;;;;;;;7.88;6.45;;;;;;;18.25;100.00;94986.75;5123910;27;20072;-80
2023/09/21 05:46:56;;;;;;;8.38;6.45;;;;;;;18.33;100.00;94992.50;5117557;27;20046;-83
2023/09/21 05:49:22;;;;;;;5.75;5.10;;;;;;;18.52;100.00;94987.31;5124643;27;20037;-81
2023/09/21 05:51:56;;;;;;;5.97;5.25;;;;;;;18.57;100.00;94992.69;5115808;27;20100;-82
2023/09/21 05:54:25;;;;;;;6.55;5.40;;;;;;;18.65;100.00;94997.66;5118483;27;20400;-81
2023/09/21 05:56:54;;;;;;;7.45;6.03;;;;;;;18.76;100.00;94996.91;5122731;27;20040;-80
2023/09/21 05:59:22;;;;;;;10.38;6.30;;;;;;;18.72;100.00;95024.66;5122769;27;20618;-80
2023/09/21 06:01:48;;;;;;;7.05;5.60;;;;;;;18.82;100.00;95004.72;5123807;27;20027;-81
2023/09/21 06:04:16;;;;;;;6.32;5.72;;;;;;;19.16;100.00;94973.59;5122625;27;20031;-84
2023/09/21 06:06:42;;;;;;;8.53;5.57;;;;;;;19.24;100.00;94979.34;5110919;27;20147;-82
2023/09/21 06:09:10;;;;;;;6.47;5.00;;;;;;;20.04;100.00;94960.53;5123671;27;20114;-82
2023/09/21 06:11:36;;;;;;;6.40;4.93;;;;;;;22.53;100.00;94944.53;5123418;27;20114;-81
2023/09/21 06:14:02;;;;;;;11.75;4.47;;;;;;;26.22;82.96;94928.22;5124344;27;20110;-81
2023/09/21 06:16:29;;;;;;;5.28;3.90;;;;;;;27.01;74.54;94926.38;5122133;27;20027;-81
2023/09/21 06:18:55;;;;;;;4.20;3.80;;;;;;;28.30;73.21;94936.66;5123531;27;20047;-82
2023/09/21 06:21:20;;;;;;;4.53;4.13;;;;;;;28.96;72.13;94932.22;5109337;27;20032;-81
2023/09/21 06:23:46;;;;;;;4.43;3.58;;;;;;;29.74;68.76;94929.81;5121518;27;20023;-83
2023/09/21 06:26:15;;;;;;;5.63;3.10;;;;;;;29.18;69.90;94927.16;5095009;27;20489;-82
2023/09/21 06:28:43;;;;;;;5.88;3.78;;;;;;;29.18;65.81;94927.16;5110441;27;20410;-81
2023/09/21 06:31:13;;;;;;;4.82;3.40;;;;;;;30.38;61.98;94922.88;5108274;27;20404;-82
2023/09/21 06:33:41;;;;;;;4.38;3.15;;;;;;;31.79;56.05;94921.84;5122033;27;20019;-81
2023/09/21 06:36:15;;;;;;;5.80;2.90;;;;;;;30.01;62.58;94926.47;5123327;27;20031;-82
2023/09/21 06:38:42;;;;;;;3.97;3.40;;;;;;;26.67;80.45;94928.09;5122135;27;20504;-81
2023/09/21 06:41:08;;;;;;;6.00;3.58;;;;;;;25.08;86.15;94918.81;5123370;27;20541;-80
2023/09/21 06:43:35;;;;;;;6.85;3.53;;;;;;;25.27;89.31;94925.22;5122393;27;20027;-82
2023/09/21 06:46:01;;;;;;;5.03;3.80;;;;;;;24.74;87.90;94928.22;5122368;27;20059;-82
2023/09/21 06:48:27;;;;;;;4.95;3.97;;;;;;;25.93;82.29;94931.41;5114924;27;20051;-82
2023/09/21 06:50:52;;;;;;;5.00;3.50;;;;;;;24.34;85.88;94934.91;5115309;27;20035;-81
2023/09/21 06:53:18;;;;;;;6.40;4.05;;;;;;;25.15;83.29;94938.72;5106465;27;20597;-80
2023/09/21 06:55:43;;;;;;;6.68;4.18;;;;;;;25.94;79.58;94940.19;5113120;27;20033;-82
2023/09/21 06:58:08;;;;;;;5.53;3.70;;;;;;;25.68;81.37;94928.75;5122796;27;20088;-81
2023/09/21 07:00:37;;;;;;;9.70;4.80;;;;;;;26.57;78.56;94939.56;5106731;27;20047;-83
2023/09/21 07:03:02;;;;;;;;;;;;;;;27.45;68.65;94931.75;5114707;27;20028;-81
2023/09/21 07:05:28;;;;;;;7.90;3.88;;;;;;;30.32;59.00;94929.41;5094645;28;20338;-81
2023/09/21 07:07:54;;;;;;;5.80;3.15;;;;;;;30.20;58.13;94926.41;5092110;27;20039;-81
2023/09/21 07:10:19;;;;;;;7.22;3.17;;;;;;;31.99;52.75;94931.28;5090633;28;20086;-83
2023/09/21 07:12:45;;;;;;;3.50;3.00;;;;;;;29.75;59.70;94925.25;5109158;27;20011;-81
2023/09/21 07:15:10;;;;;;;3.78;3.30;;;;;;;28.72;62.84;94932.25;5122427;27;20167;-82
2023/09/21 07:17:36;;;;;;;4.05;3.40;;;;;;;25.61;77.84;94929.03;5109108;27;20135;-80
2023/09/21 07:20:06;;;;;;;6.65;3.90;;;;;;;24.88;86.21;94927.53;5099217;27;20094;-82
2023/09/21 07:22:32;;;;;;;4.18;3.75;;;;;;;24.05;89.57;94925.69;5120311;27;20031;-81
2023/09/21 07:24:58;;;;;;;4.80;4.40;;;;;;;25.26;86.20;94928.94;5093747;27;20046;-81
2023/09/21 07:27:24;;;;;;;3.95;3.55;;;;;;;26.87;73.04;94928.06;5100490;27;20419;-82
2023/09/21 07:29:50;;;;;;;9.25;4.03;;;;;;;26.31;80.19;94923.94;5093856;27;20074;-80
2023/09/21 07:32:16;;;;;;;4.22;3.50;;;;;;;26.32;74.72;94923.69;5085144;28;20933;-79
2023/09/21 07:34:41;;;;;;;7.50;3.50;;;;;;;26.86;77.44;94923.00;5086951;28;20019;-80
2023/09/21 07:37:10;;;;;;;6.15;3.92;;;;;;;26.77;77.31;94922.75;5103835;27;20058;-81
2023/09/21 07:39:35;;;;;;;5.10;3.60;;;;;;;26.63;75.49;94927.03;5106995;27;20843;-82
2023/09/21 07:42:04;;;;;;;4.22;3.80;;;;;;;25.31;81.46;94920.19;5106724;27;20127;-81
2023/09/21 07:44:30;;;;;;;;;;;;;;;24.71;82.35;94929.53;5111657;27;20023;-80
2023/09/21 07:46:57;;;;;;;4.70;3.67;;;;;;;26.32;78.96;94928.19;5116383;27;19914;-81
2023/09/21 07:49:25;;;;;;;6.80;4.15;;;;;;;26.19;78.98;94932.22;5122094;27;20496;-81
2023/09/21 07:51:51;;;;;;;5.93;3.65;;;;;;;24.90;83.35;94927.25;5120808;27;20045;-81
2023/09/21 07:54:16;;;;;;;6.68;3.75;;;;;;;25.55;83.45;94924.78;5101730;27;20404;-80
2023/09/21 07:56:42;;;;;;;4.95;3.70;;;;;;;25.76;82.91;94920.25;5109096;27;20461;-83
2023/09/21 07:59:10;;;;;;;5.18;3.80;;;;;;;25.57;83.16;94922.66;5102737;27;20030;-80
2023/09/21 08:01:36;;;;;;;4.88;3.90;;;;;;;26.06;82.76;94914.94;5121083;27;20023;-81
2023/09/21 08:04:01;;;;;;;4.82;4.30;;;;;;;26.43;79.97;94919.13;5121781;27;20027;-81
2023/09/21 08:06:28;;;;;;;4.97;3.78;;;;;;;25.92;80.44;94910.44;5121049;27;20461;-81
2023/09/21 08:08:54;;;;;;;4.07;3.70;;;;;;;25.42;84.50;94908.53;5112429;27;20023;-81
2023/09/21 08:11:19;;;;;;;7.32;4.22;;;;;;;25.15;85.65;94906.91;5121778;27;20377;-81
2023/09/21 08:13:45;;;;;;;10.60;3.67;;;;;;;24.74;86.72;94912.31;5117668;27;20476;-83
2023/09/21 08:16:11;;;;;;;5.28;3.78;;;;;;;25.40;83.67;94913.28;5116170;27;20027;-80
2023/09/21 08:18:37;;;;;;;4.75;3.58;;;;;;;25.29;83.54;94906.41;5113447;27;20032;-81
2023/09/21 08:21:06;;;;;;;6.10;3.90;;;;;;;25.69;83.35;94915.22;5110070;28;20023;-82
2023/09/21 08:23:32;;;;;;;8.02;4.10;;;;;;;26.19;82.17;94908.31;5120543;28;20027;-82
2023/09/21 08:25:58;;;;;;;5.57;4.00;;;;;;;26.68;81.70;94908.44;5073934;28;20043;-81
2023/09/21 08:28:25;;;;;;;4.07;3.67;;;;;;;26.76;79.20;94915.03;5100814;28;20527;-82
2023/09/21 08:30:52;;;;;;;5.65;3.90;;;;;;;26.63;79.74;94914.53;5099874;28;20118;-81
2023/09/21 08:33:18;;;;;;;11.82;4.00;;;;;;;26.51;81.50;94921.25;5101139;28;20034;-81
2023/09/21 08:35:43;;;;;;;5.63;3.92;;;;;;;26.10;82.46;94913.31;5097335;28;20023;-82
2023/09/21 08:38:09;;;;;;;4.13;3.53;;;;;;;25.92;80.45;94919.19;5075513;28;20020;-80
2023/09/21 08:40:37;;;;;;;5.13;4.07;;;;;;;25.58;85.31;94918.94;5099903;28;20023;-79
2023/09/21 08:43:04;;;;;;;4.20;3.40;;;;;;;26.03;81.24;94918.13;5082690;28;20031;-80
2023/09/21 08:45:30;;;;;;;8.20;4.00;;;;;;;25.76;79.81;94919.47;5100938;28;20480;-79
2023/09/21 08:47:56;;;;;;;4.63;3.67;;;;;;;25.39;80.12;94909.88;5079592;28;20027;-80
2023/09/21 08:50:22;;;;;;;5.93;4.15;;;;;;;25.12;83.06;94909.28;5099331;28;20032;-80
2023/09/21 08:52:48;;;;;;;4.28;3.80;;;;;;;24.88;82.05;94914.28;5098789;28;20051;-82
2023/09/21 08:55:14;;;;;;;4.45;4.05;;;;;;;25.06;81.72;94900.53;5082901;28;20504;-79
2023/09/21 08:57:40;;;;;;;7.78;3.78;;;;;;;24.92;80.67;94909.22;5099660;28;20042;-84
2023/09/21 09:00:08;;;;;;;8.25;4.07;;;;;;;25.04;79.92;94915.13;5082270;28;20492;-84
2023/09/21 09:02:35;;;;;;;5.75;4.50;;;;;;;25.09;80.49;94899.19;5099720;28;20036;-80
2023/09/21 09:05:04;;;;;;;5.20;4.13;;;;;;;24.82;80.15;94904.69;5098735;28;20047;-80
2023/09/21 09:07:40;;;;;;;4.68;4.18;;;;;;;25.03;80.43;94910.84;5069685;28;20360;-80
2023/09/21 09:10:15;;;;;;;5.95;4.30;;;;;;;24.66;82.79;94910.97;5096102;28;20020;-82
2023/09/21 09:12:41;;;;;;;7.70;4.03;;;;;;;24.85;82.03;94917.41;5068909;28;20067;-80
2023/09/21 09:15:09;;;;;;;8.00;4.65;;;;;;;24.60;82.28;94915.44;5065379;28;20138;-81
2023/09/21 09:17:35;;;;;;;8.55;4.95;;;;;;;24.60;82.58;94915.44;5044105;28;20038;-81
2023/09/21 09:20:03;;;;;;;5.13;4.68;;;;;;;24.43;84.43;94909.56;5074764;28;20516;-81
2023/09/21 09:22:32;;;;;;;8.82;4.18;;;;;;;24.30;84.84;94922.47;5096022;28;20024;-80
2023/09/21 09:25:05;;;;;;;6.20;4.22;;;;;;;24.06;86.62;94922.00;5083425;28;20202;-80
2023/09/21 09:27:34;;;;;;;6.72;4.00;;;;;;;23.93;86.65;94922.44;5097321;28;20061;-80
2023/09/21 09:30:00;;;;;;;5.13;4.35;;;;;;;24.00;86.24;94934.41;5094410;28;20020;-78
2023/09/21 09:32:35;;;;;;;6.80;4.50;;;;;;;23.94;86.71;94927.50;5099677;28;20034;-83
2023/09/21 09:35:02;;;;;;;7.68;4.40;;;;;;;23.89;87.08;94922.16;5103674;28;20016;-79
2023/09/21 09:37:28;;;;;;;8.25;4.78;;;;;;;23.81;89.30;94927.13;5103948;28;20035;-78
2023/09/21 09:39:54;;;;;;;8.20;3.63;;;;;;;23.85;90.50;94921.09;5102871;28;20024;-79
2023/09/21 09:42:20;;;;;;;9.20;4.13;;;;;;;23.73;91.56;94923.09;5086112;28;20048;-80
2023/09/21 09:44:47;;;;;;;8.02;4.65;;;;;;;23.44;93.09;94924.44;5101708;28;20556;-82
2023/09/21 09:47:16;;;;;;;4.68;4.32;;;;;;;23.31;93.19;94925.59;5104324;28;20024;-83
2023/09/21 09:49:45;;;;;;;8.35;4.32;;;;;;;23.21;94.90;94919.44;5088888;28;20055;-86
2023/09/21 09:52:10;;;;;;;6.53;3.97;;;;;;;23.08;94.04;94916.16;5103027;28;20019;-87
2023/09/21 09:54:36;;;;;;;7.63;4.22;;;;;;;23.21;99.41;94917.59;5098701;28;20035;-78
2023/09/21 09:57:04;;;;;;;4.22;3.83;;;;;;;22.94;100.00;94919.41;5093731;28;20454;-89
2023/09/21 09:59:30;;;;;;;8.90;4.38;;;;;;;22.80;99.75;94919.00;5100601;28;20135;-83
2023/09/21 10:01:56;;;;;;;4.85;3.20;;;;;;;22.93;100.00;94915.97;5085658;28;20114;-81
2023/09/21 10:04:22;;;;;;;5.00;3.90;;;;;;;22.90;100.00;94918.31;5053177;28;20038;-84
2023/09/21 10:06:48;;;;;;;7.28;4.57;;;;;;;22.84;100.00;94914.00;5057996;28;20447;-81
2023/09/21 10:09:14;;;;;;;3.90;3.53;;;;;;;22.80;100.00;94912.91;5083554;28;20024;-83
2023/09/21 10:11:50;;;;;;;4.88;4.47;;;;;;;22.74;100.00;94913.91;5082377;28;20036;-81
2023/09/21 10:14:17;;;;;;;9.15;4.43;;;;;;;22.58;100.00;94903.13;5078810;28;20030;-85
2023/09/21 10:16:53;;;;;;;7.93;4.90;;;;;;;22.74;100.00;94904.13;5073749;28;20585;-78
2023/09/21 10:19:28;;;;;;;6.97;3.95;;;;;;;22.90;100.00;94902.47;5074248;28;20055;-79
2023/09/21 10:21:56;;;;;;;6.63;3.92;;;;;;;22.98;100.00;94909.97;5073414;28;20035;-79
2023/09/21 10:24:26;;;;;;;4.57;4.13;;;;;;;23.00;100.00;94902.56;5069501;28;20816;-78
2023/09/21 10:26:53;;;;;;;5.95;4.30;;;;;;;22.97;100.00;94900.41;5073363;28;20096;-78
2023/09/21 10:29:20;;;;;;;7.35;3.97;;;;;;;22.71;100.00;94894.06;5073653;28;20561;-79
2023/09/21 10:31:53;;;;;;;5.38;4.80;;;;;;;22.75;100.00;94879.31;5068488;28;20020;-81
2023/09/21 10:34:21;;;;;;;4.50;4.20;;;;;;;22.54;100.00;94882.72;5057573;28;20107;-78
2023/09/21 10:37:00;;;;;;;5.38;4.80;;;;;;;22.55;100.00;94890.44;5068421;28;20340;-79
2023/09/21 10:39:26;;;;;;;5.75;4.40;;;;;;;22.57;100.00;94888.31;5063518;28;20032;-85
2023/09/21 10:41:54;;;;;;;5.13;4.50;;;;;;;22.49;100.00;94883.50;5055244;28;20079;-79
2023/09/21 10:45:02;;;;;;;4.80;4.32;;;;;;;22.66;100.00;94891.38;5080300;28;20436;-80
2023/09/21 10:47:36;;;;;;;5.28;3.65;;;;;;;22.75;100.00;94884.59;5081191;28;20036;-80
2023/09/21 10:50:06;;;;;;;5.53;3.55;;;;;;;22.95;100.00;94881.38;5078988;28;20050;-79
2023/09/21 10:52:32;;;;;;;6.60;5.20;;;;;;;23.14;100.00;94866.78;5080822;28;20040;-78
2023/09/21 10:54:58;;;;;;;4.47;4.07;;;;;;;23.28;100.00;94870.59;5066682;28;20284;-78
2023/09/21 10:57:29;;;;;;;7.45;4.72;;;;;;;23.59;100.00;94867.19;5071965;28;20036;-83
2023/09/21 10:59:57;;;;;;;4.57;4.18;;;;;;;24.00;100.00;94873.53;5067954;28;20299;-79
2023/09/21 11:02:23;;;;;;;5.10;4.22;;;;;;;24.75;100.00;94860.94;5059043;28;20024;-79
2023/09/21 11:04:52;;;;;;;3.95;3.60;;;;;;;25.15;92.06;94864.47;5060524;28;20025;-79
2023/09/21 11:07:18;;;;;;;5.47;3.90;;;;;;;25.34;92.80;94859.44;5063012;28;20506;-79
2023/09/21 11:09:44;;;;;;;6.20;3.47;;;;;;;26.01;92.01;94853.84;5077192;28;20032;-80
2023/09/21 11:12:14;;;;;;;8.15;3.80;;;;;;;25.27;87.82;94850.19;5087312;28;20024;-80
2023/09/21 11:14:44;;;;;;;4.38;3.97;;;;;;;25.75;88.30;94843.56;5086631;28;20971;-79
2023/09/21 11:17:12;;;;;;;4.60;3.40;;;;;;;25.69;86.61;94843.56;5079506;28;20036;-79
2023/09/21 11:19:41;;;;;;;6.97;3.92;;;;;;;25.51;85.73;94843.31;5065242;28;20044;-79
2023/09/21 11:22:07;;;;;;;;;;;;;;;25.81;86.36;94831.88;5080639;28;20030;-79
2023/09/21 11:24:35;;;;;;;3.47;3.17;;;;;;;25.55;90.94;94829.25;5067692;28;19920;-78
2023/09/21 11:27:10;;;;;;;3.90;3.50;;;;;;;25.85;92.06;94824.97;5092104;28;20429;-79
2023/09/21 11:29:43;;;;;;;4.97;3.45;;;;;;;25.63;93.23;94823.41;5078085;28;20044;-79